sensor_id;sensor_type;location;lat;lon;timestamp;pressure;altitude;pressure_sealevel;temperature;humidity
10476;BME280;26166;48.264;11.436;2023-04-15T00:07:42;95139.63;;;10.93;62.50
10476;BME280;26166;48.264;11.436;2023-04-15T00:11:21;95140.66;;;10.92;62.39
10476;BME280;26166;48.264;11.436;2023-04-15T00:25:31;95129.91;;;10.87;63.01
10476;BME280;26166;48.264;11.436;2023-04-15T00:29:16;95127.94;;;10.89;62.95
10476;BME280;26166;48.264;11.436;2023-04-15T00:33:00;95127.09;;;10.89;62.87
10476;BME280;26166;48.264;11.436;2023-04-15T00:36:57;95124.28;;;10.90;62.74
10476;BME280;26166;48.264;11.436;2023-04-15T00:51:48;95116.81;;;10.94;62.12
10476;BME280;26166;48.264;11.436;2023-04-15T01:10:08;95105.72;;;10.98;61.37
10476;BME280;26166;48.264;11.436;2023-04-15T01:31:57;95108.56;;;11.03;60.81
10476;BME280;26166;48.264;11.436;2023-04-15T01:50:24;95101.06;;;10.94;61.14
10476;BME280;26166;48.264;11.436;2023-04-15T02:16:01;95106.53;;;10.99;60.93
10476;BME280;26166;48.264;11.436;2023-04-15T02:30:41;95108.94;;;11.00;60.63
10476;BME280;26166;48.264;11.436;2023-04-15T02:37:45;95113.41;;;11.00;59.99
10476;BME280;26166;48.264;11.436;2023-04-15T02:41:16;95115.00;;;11.01;59.91
10476;BME280;26166;48.264;11.436;2023-04-15T02:45:14;95117.47;;;11.02;59.42
10476;BME280;26166;48.264;11.436;2023-04-15T02:49:24;95119.47;;;11.00;59.74
10476;BME280;26166;48.264;11.436;2023-04-15T03:03:42;95112.16;;;10.96;59.23
10476;BME280;26166;48.264;11.436;2023-04-15T03:10:57;95117.81;;;10.93;59.12
10476;BME280;26166;48.264;11.436;2023-04-15T03:13:59;95107.13;;;10.94;59.40
10476;BME280;26166;48.264;11.436;2023-04-15T03:17:00;95112.56;;;10.93;58.97
10476;BME280;26166;48.264;11.436;2023-04-15T03:20:01;95112.56;;;10.93;58.79
10476;BME280;26166;48.264;11.436;2023-04-15T03:23:02;95119.84;;;10.91;59.25
10476;BME280;26166;48.264;11.436;2023-04-15T03:26:02;95127.09;;;10.89;59.28
10476;BME280;26166;48.264;11.436;2023-04-15T03:29:03;95122.25;;;10.85;60.08
10476;BME280;26166;48.264;11.436;2023-04-15T03:32:03;95127.69;;;10.84;60.43
10476;BME280;26166;48.264;11.436;2023-04-15T03:35:03;95128.47;;;10.84;59.96
10476;BME280;26166;48.264;11.436;2023-04-15T03:38:04;95129.50;;;10.83;60.76
10476;BME280;26166;48.264;11.436;2023-04-15T03:41:04;95133.75;;;10.84;60.13
10476;BME280;26166;48.264;11.436;2023-04-15T03:44:04;95130.31;;;10.84;60.13
10476;BME280;26166;48.264;11.436;2023-04-15T03:47:04;95131.53;;;10.88;59.81
10476;BME280;26166;48.264;11.436;2023-04-15T03:50:05;95131.53;;;10.88;59.29
10476;BME280;26166;48.264;11.436;2023-04-15T03:53:06;95131.53;;;10.88;59.21
10476;BME280;26166;48.264;11.436;2023-04-15T03:56:06;95127.72;;;10.91;59.45
10476;BME280;26166;48.264;11.436;2023-04-15T03:59:06;95127.72;;;10.91;59.67
10476;BME280;26166;48.264;11.436;2023-04-15T04:02:06;95132.78;;;10.92;59.42
10476;BME280;26166;48.264;11.436;2023-04-15T04:05:07;95125.09;;;10.91;59.17
10476;BME280;26166;48.264;11.436;2023-04-15T04:08:07;95131.97;;;10.92;59.36
10476;BME280;26166;48.264;11.436;2023-04-15T04:11:07;95128.72;;;10.90;59.03
10476;BME280;26166;48.264;11.436;2023-04-15T04:14:08;95126.09;;;10.90;58.91
10476;BME280;26166;48.264;11.436;2023-04-15T04:17:08;95125.91;;;10.91;59.14
10476;BME280;26166;48.264;11.436;2023-04-15T04:20:08;95119.03;;;10.90;58.87
10476;BME280;26166;48.264;11.436;2023-04-15T04:23:08;95119.84;;;10.91;59.00
10476;BME280;26166;48.264;11.436;2023-04-15T04:26:08;95123.47;;;10.90;59.07
10476;BME280;26166;48.264;11.436;2023-04-15T04:29:09;95122.84;;;10.88;58.89
10476;BME280;26166;48.264;11.436;2023-04-15T04:32:10;95127.09;;;10.89;58.68
10476;BME280;26166;48.264;11.436;2023-04-15T04:35:10;95125.47;;;10.88;58.75
10476;BME280;26166;48.264;11.436;2023-04-15T04:38:11;95125.47;;;10.88;58.60
10476;BME280;26166;48.264;11.436;2023-04-15T04:41:11;95130.72;;;10.88;58.48
10476;BME280;26166;48.264;11.436;2023-04-15T04:44:11;95127.09;;;10.89;58.76
10476;BME280;26166;48.264;11.436;2023-04-15T04:47:11;95136.63;;;10.90;58.10
10476;BME280;26166;48.264;11.436;2023-04-15T04:50:12;95137.59;;;10.89;58.55
10476;BME280;26166;48.264;11.436;2023-04-15T04:53:13;95131.75;;;10.86;58.42
10476;BME280;26166;48.264;11.436;2023-04-15T04:56:14;95135.56;;;10.84;58.25
10476;BME280;26166;48.264;11.436;2023-04-15T04:59:14;95132.13;;;10.83;57.94
10476;BME280;26166;48.264;11.436;2023-04-15T05:02:14;95133.13;;;10.82;58.23
10476;BME280;26166;48.264;11.436;2023-04-15T05:05:15;95131.31;;;10.83;58.15
10476;BME280;26166;48.264;11.436;2023-04-15T05:08:15;95134.16;;;10.81;58.13
10476;BME280;26166;48.264;11.436;2023-04-15T05:11:15;95140.00;;;10.83;57.60
10476;BME280;26166;48.264;11.436;2023-04-15T05:14:15;95129.50;;;10.83;57.85
10476;BME280;26166;48.264;11.436;2023-04-15T05:17:16;95124.66;;;10.80;57.88
10476;BME280;26166;48.264;11.436;2023-04-15T05:20:16;95132.53;;;10.80;57.71
10476;BME280;26166;48.264;11.436;2023-04-15T05:23:17;95125.47;;;10.81;57.99
10476;BME280;26166;48.264;11.436;2023-04-15T05:26:17;95129.91;;;10.80;57.89
10476;BME280;26166;48.264;11.436;2023-04-15T05:29:17;95131.09;;;10.78;57.96
10476;BME280;26166;48.264;11.436;2023-04-15T05:32:17;95127.28;;;10.80;57.90
10476;BME280;26166;48.264;11.436;2023-04-15T05:35:18;95130.09;;;10.79;57.78
10476;BME280;26166;48.264;11.436;2023-04-15T05:38:18;95123.00;;;10.79;57.71
10476;BME280;26166;48.264;11.436;2023-04-15T05:41:18;95131.91;;;10.78;57.52
10476;BME280;26166;48.264;11.436;2023-04-15T05:44:18;95134.72;;;10.77;57.74
10476;BME280;26166;48.264;11.436;2023-04-15T05:47:18;95132.50;;;10.74;57.45
10476;BME280;26166;48.264;11.436;2023-04-15T05:50:19;95141.97;;;10.75;57.23
10476;BME280;26166;48.264;11.436;2023-04-15T05:53:19;95133.94;;;10.76;57.41
10476;BME280;26166;48.264;11.436;2023-04-15T05:56:20;95137.53;;;10.75;57.12
10476;BME280;26166;48.264;11.436;2023-04-15T05:59:21;95135.91;;;10.74;57.09
10476;BME280;26166;48.264;11.436;2023-04-15T06:02:21;95133.94;;;10.76;56.98
10476;BME280;26166;48.264;11.436;2023-04-15T06:05:21;95134.91;;;10.75;56.87
10476;BME280;26166;48.264;11.436;2023-04-15T06:08:22;95147.66;;;10.78;56.81
10476;BME280;26166;48.264;11.436;2023-04-15T06:11:22;95142.41;;;10.78;56.67
10476;BME280;26166;48.264;11.436;2023-04-15T06:14:22;95142.19;;;10.80;56.38
10476;BME280;26166;48.264;11.436;2023-04-15T06:17:22;95146.84;;;10.78;56.45
10476;BME280;26166;48.264;11.436;2023-04-15T06:20:22;95134.72;;;10.77;56.58
10476;BME280;26166;48.264;11.436;2023-04-15T06:23:23;95142.41;;;10.78;56.46
10476;BME280;26166;48.264;11.436;2023-04-15T06:26:23;95139.78;;;10.78;56.29
10476;BME280;26166;48.264;11.436;2023-04-15T06:29:23;95142.19;;;10.80;56.35
10476;BME280;26166;48.264;11.436;2023-04-15T06:32:23;95145.03;;;10.78;55.83
10476;BME280;26166;48.264;11.436;2023-04-15T06:35:23;95150.28;;;10.78;55.96
10476;BME280;26166;48.264;11.436;2023-04-15T06:38:24;95151.91;;;10.79;56.08
10476;BME280;26166;48.264;11.436;2023-04-15T06:41:24;95154.53;;;10.79;55.92
10476;BME280;26166;48.264;11.436;2023-04-15T06:44:24;95148.69;;;10.77;55.72
10476;BME280;26166;48.264;11.436;2023-04-15T06:47:24;95147.06;;;10.76;55.95
10476;BME280;26166;48.264;11.436;2023-04-15T06:50:25;95153.28;;;10.75;55.88
10476;BME280;26166;48.264;11.436;2023-04-15T06:53:25;95155.13;;;10.75;55.92
10476;BME280;26166;48.264;11.436;2023-04-15T06:56:27;95158.97;;;10.72;56.10
10476;BME280;26166;48.264;11.436;2023-04-15T06:59:27;95146.44;;;10.74;55.67
10476;BME280;26166;48.264;11.436;2023-04-15T07:02:27;95152.50;;;10.75;55.40
10476;BME280;26166;48.264;11.436;2023-04-15T07:05:28;95153.28;;;10.75;55.18
10476;BME280;26166;48.264;11.436;2023-04-15T07:08:28;95158.53;;;10.75;55.14
10476;BME280;26166;48.264;11.436;2023-04-15T07:11:29;95159.38;;;10.76;54.97
10476;BME280;26166;48.264;11.436;2023-04-15T07:14:29;95156.94;;;10.74;55.06
10476;BME280;26166;48.264;11.436;2023-04-15T07:17:29;95158.53;;;10.75;55.00
10476;BME280;26166;48.264;11.436;2023-04-15T07:20:30;95160.56;;;10.73;54.67
10476;BME280;26166;48.264;11.436;2023-04-15T07:23:30;95163.41;;;10.72;54.82
10476;BME280;26166;48.264;11.436;2023-04-15T07:26:31;95159.13;;;10.71;54.37
10476;BME280;26166;48.264;11.436;2023-04-15T07:29:31;95158.31;;;10.70;54.16
10476;BME280;26166;48.264;11.436;2023-04-15T07:32:31;95152.25;;;10.70;53.93
10476;BME280;26166;48.264;11.436;2023-04-15T07:35:31;95156.50;;;10.71;53.99
10476;BME280;26166;48.264;11.436;2023-04-15T07:38:32;95167.41;;;10.68;54.34
10476;BME280;26166;48.264;11.436;2023-04-15T07:41:32;95156.91;;;10.68;54.25
10476;BME280;26166;48.264;11.436;2023-04-15T07:44:32;95156.91;;;10.68;54.24
10476;BME280;26166;48.264;11.436;2023-04-15T07:47:33;95168.22;;;10.68;54.58
10476;BME280;26166;48.264;11.436;2023-04-15T07:50:33;95162.53;;;10.65;54.77
10476;BME280;26166;48.264;11.436;2023-04-15T07:53:33;95161.34;;;10.67;54.11
10476;BME280;26166;48.264;11.436;2023-04-15T07:56:33;95164.38;;;10.71;54.48
10476;BME280;26166;48.264;11.436;2023-04-15T07:59:33;95164.59;;;10.69;54.66
10476;BME280;26166;48.264;11.436;2023-04-15T08:02:34;95174.50;;;10.67;54.38
10476;BME280;26166;48.264;11.436;2023-04-15T08:05:34;95157.88;;;10.60;54.63
10476;BME280;26166;48.264;11.436;2023-04-15T08:08:34;95153.22;;;10.62;54.66
10476;BME280;26166;48.264;11.436;2023-04-15T08:11:34;95151.81;;;10.59;54.92
10476;BME280;26166;48.264;11.436;2023-04-15T08:14:35;95150.00;;;10.60;54.54
10476;BME280;26166;48.264;11.436;2023-04-15T08:17:35;95152.25;;;10.63;54.23
10476;BME280;26166;48.264;11.436;2023-04-15T08:20:36;95144.38;;;10.63;54.14
10476;BME280;26166;48.264;11.436;2023-04-15T08:23:36;95146.34;;;10.61;54.36
10476;BME280;26166;48.264;11.436;2023-04-15T08:26:37;95148.19;;;10.60;54.37
10476;BME280;26166;48.264;11.436;2023-04-15T08:29:37;95143.13;;;10.59;54.53
10476;BME280;26166;48.264;11.436;2023-04-15T08:32:38;95150.00;;;10.60;54.55
10476;BME280;26166;48.264;11.436;2023-04-15T08:35:38;95141.31;;;10.59;54.69
10476;BME280;26166;48.264;11.436;2023-04-15T08:38:38;95146.72;;;10.58;54.27
10476;BME280;26166;48.264;11.436;2023-04-15T08:41:45;95145.94;;;10.57;54.24
10476;BME280;26166;48.264;11.436;2023-04-15T08:44:46;95145.75;;;10.59;54.32
10476;BME280;26166;48.264;11.436;2023-04-15T08:47:47;95150.00;;;10.60;54.09
10476;BME280;26166;48.264;11.436;2023-04-15T08:50:49;95157.66;;;10.61;54.81
10476;BME280;26166;48.264;11.436;2023-04-15T08:53:49;95159.31;;;10.63;55.11
10476;BME280;26166;48.264;11.436;2023-04-15T08:56:51;95159.13;;;10.64;55.26
10476;BME280;26166;48.264;11.436;2023-04-15T08:59:54;95160.34;;;10.68;54.99
10476;BME280;26166;48.264;11.436;2023-04-15T09:02:55;95165.59;;;10.68;54.54
10476;BME280;26166;48.264;11.436;2023-04-15T09:05:56;95169.03;;;10.69;54.72
10476;BME280;26166;48.264;11.436;2023-04-15T09:08:56;95162.56;;;10.71;54.97
10476;BME280;26166;48.264;11.436;2023-04-15T09:11:56;95166.19;;;10.70;55.17
10476;BME280;26166;48.264;11.436;2023-04-15T09:14:56;95165.19;;;10.71;55.09
10476;BME280;26166;48.264;11.436;2023-04-15T09:17:57;95171.28;;;10.72;55.22
10476;BME280;26166;48.264;11.436;2023-04-15T09:21:10;95166.03;;;10.72;54.55
10476;BME280;26166;48.264;11.436;2023-04-15T09:24:11;95167.66;;;10.73;54.48
10476;BME280;26166;48.264;11.436;2023-04-15T09:27:11;95168.66;;;10.72;54.69
10476;BME280;26166;48.264;11.436;2023-04-15T09:30:15;95175.31;;;10.74;55.02
10476;BME280;26166;48.264;11.436;2023-04-15T09:33:15;95183.19;;;10.74;54.46
10476;BME280;26166;48.264;11.436;2023-04-15T09:36:16;95176.34;;;10.73;54.81
10476;BME280;26166;48.264;11.436;2023-04-15T09:39:16;95178.31;;;10.71;55.22
10476;BME280;26166;48.264;11.436;2023-04-15T09:42:16;95187.66;;;10.74;54.92
10476;BME280;26166;48.264;11.436;2023-04-15T09:45:23;95185.81;;;10.74;55.52
10476;BME280;26166;48.264;11.436;2023-04-15T09:48:24;95190.06;;;10.75;55.61
10476;BME280;26166;48.264;11.436;2023-04-15T09:51:33;95187.44;;;10.75;55.19
10476;BME280;26166;48.264;11.436;2023-04-15T09:54:35;95184.81;;;10.75;54.98
10476;BME280;26166;48.264;11.436;2023-04-15T09:57:36;95181.22;;;10.76;54.92
10476;BME280;26166;48.264;11.436;2023-04-15T10:00:37;95180.41;;;10.76;55.05
10476;BME280;26166;48.264;11.436;2023-04-15T10:03:37;95189.69;;;10.78;54.94
10476;BME280;26166;48.264;11.436;2023-04-15T10:06:41;95188.69;;;10.79;55.30
10476;BME280;26166;48.264;11.436;2023-04-15T10:09:41;95190.31;;;10.80;55.06
10476;BME280;26166;48.264;11.436;2023-04-15T10:12:44;95186.06;;;10.79;55.00
10476;BME280;26166;48.264;11.436;2023-04-15T10:15:48;95200.84;;;10.80;54.97
10476;BME280;26166;48.264;11.436;2023-04-15T10:18:53;95192.94;;;10.80;54.78
10476;BME280;26166;48.264;11.436;2023-04-15T10:21:54;95199.41;;;10.84;55.02
10476;BME280;26166;48.264;11.436;2023-04-15T10:24:55;95198.59;;;10.84;55.39
10476;BME280;26166;48.264;11.436;2023-04-15T10:27:55;95196.78;;;10.84;54.73
10476;BME280;26166;48.264;11.436;2023-04-15T10:30:56;95193.34;;;10.84;54.53
10476;BME280;26166;48.264;11.436;2023-04-15T10:33:58;95202.25;;;10.83;54.53
10476;BME280;26166;48.264;11.436;2023-04-15T10:37:03;95203.84;;;10.84;54.64
10476;BME280;26166;48.264;11.436;2023-04-15T10:43:25;95201.88;;;10.86;54.77
10476;BME280;26166;48.264;11.436;2023-04-15T10:46:39;95201.06;;;10.85;55.22
10476;BME280;26166;48.264;11.436;2023-04-15T10:49:49;95196.78;;;10.84;54.38
10476;BME280;26166;48.264;11.436;2023-04-15T10:52:50;95191.75;;;10.83;54.79
10476;BME280;26166;48.264;11.436;2023-04-15T10:55:51;95201.06;;;10.85;54.96
10476;BME280;26166;48.264;11.436;2023-04-15T10:58:51;95207.13;;;10.86;54.81
10476;BME280;26166;48.264;11.436;2023-04-15T11:01:55;95201.06;;;10.85;54.89
10476;BME280;26166;48.264;11.436;2023-04-15T11:04:57;95200.03;;;10.86;55.14
10476;BME280;26166;48.264;11.436;2023-04-15T11:07:57;95201.06;;;10.85;54.93
10476;BME280;26166;48.264;11.436;2023-04-15T11:10:57;95201.06;;;10.85;55.00
10476;BME280;26166;48.264;11.436;2023-04-15T11:13:57;95202.88;;;10.85;55.49
10476;BME280;26166;48.264;11.436;2023-04-15T11:16:58;95204.91;;;10.90;55.18
10476;BME280;26166;48.264;11.436;2023-04-15T11:19:58;95198.66;;;10.91;55.38
10476;BME280;26166;48.264;11.436;2023-04-15T11:22:59;95201.50;;;10.89;54.68
10476;BME280;26166;48.264;11.436;2023-04-15T11:26:00;95202.69;;;10.86;55.40
10476;BME280;26166;48.264;11.436;2023-04-15T11:29:01;95205.09;;;10.88;55.44
10476;BME280;26166;48.264;11.436;2023-04-15T11:32:05;95217.25;;;10.89;55.38
10476;BME280;26166;48.264;11.436;2023-04-15T11:35:06;95199.03;;;10.88;54.93
10476;BME280;26166;48.264;11.436;2023-04-15T11:38:11;95208.53;;;10.89;55.38
10476;BME280;26166;48.264;11.436;2023-04-15T11:41:11;95213.19;;;10.86;55.12
10476;BME280;26166;48.264;11.436;2023-04-15T11:44:15;95214.78;;;10.88;55.42
10476;BME280;26166;48.264;11.436;2023-04-15T11:47:24;95212.00;;;10.89;54.93
10476;BME280;26166;48.264;11.436;2023-04-15T11:50:24;95216.41;;;10.89;55.06
10476;BME280;26166;48.264;11.436;2023-04-15T11:53:35;95227.94;;;10.88;54.33
10476;BME280;26166;48.264;11.436;2023-04-15T11:56:36;95218.06;;;10.90;53.59
10476;BME280;26166;48.264;11.436;2023-04-15T11:59:42;95231.19;;;10.90;53.21
10476;BME280;26166;48.264;11.436;2023-04-15T12:02:42;95211.16;;;10.89;53.77
10476;BME280;26166;48.264;11.436;2023-04-15T12:06:01;95227.94;;;10.88;53.65
10476;BME280;26166;48.264;11.436;2023-04-15T12:12:05;95233.81;;;10.90;53.76
10476;BME280;26166;48.264;11.436;2023-04-15T12:15:05;95239.06;;;10.90;53.39
10476;BME280;26166;48.264;11.436;2023-04-15T12:18:15;95240.69;;;10.91;53.36
10476;BME280;26166;48.264;11.436;2023-04-15T12:21:17;95244.94;;;10.92;52.92
10476;BME280;26166;48.264;11.436;2023-04-15T12:24:19;95244.13;;;10.91;52.55
10476;BME280;26166;48.264;11.436;2023-04-15T12:27:20;95244.34;;;10.90;52.42
10476;BME280;26166;48.264;11.436;2023-04-15T12:30:20;95249.38;;;10.91;52.11
10476;BME280;26166;48.264;11.436;2023-04-15T12:33:20;95256.47;;;10.91;52.05
10476;BME280;26166;48.264;11.436;2023-04-15T12:36:21;95261.72;;;10.91;51.68
10476;BME280;26166;48.264;11.436;2023-04-15T12:39:23;95260.69;;;10.92;51.17
10476;BME280;26166;48.264;11.436;2023-04-15T12:42:23;95265.94;;;10.92;51.45
10476;BME280;26166;48.264;11.436;2023-04-15T12:45:24;95273.03;;;10.91;51.49
10476;BME280;26166;48.264;11.436;2023-04-15T12:48:24;95274.03;;;10.90;51.21
10476;BME280;26166;48.264;11.436;2023-04-15T12:51:24;95278.66;;;10.88;51.04
10476;BME280;26166;48.264;11.436;2023-04-15T12:54:26;95273.59;;;10.86;51.28
10476;BME280;26166;48.264;11.436;2023-04-15T12:57:27;95279.66;;;10.87;51.20
10476;BME280;26166;48.264;11.436;2023-04-15T13:00:27;95293.63;;;10.88;51.33
10476;BME280;26166;48.264;11.436;2023-04-15T13:03:27;95285.72;;;10.88;51.31
10476;BME280;26166;48.264;11.436;2023-04-15T13:06:28;95295.22;;;10.89;51.22
10476;BME280;26166;48.264;11.436;2023-04-15T13:09:28;95289.97;;;10.89;51.67
10476;BME280;26166;48.264;11.436;2023-04-15T13:12:28;95293.44;;;10.89;51.83
10476;BME280;26166;48.264;11.436;2023-04-15T13:15:30;95295.22;;;10.89;51.45
10476;BME280;26166;48.264;11.436;2023-04-15T13:18:30;95310.19;;;10.88;52.04
10476;BME280;26166;48.264;11.436;2023-04-15T13:21:30;95307.38;;;10.90;52.32
10476;BME280;26166;48.264;11.436;2023-04-15T13:24:34;95309.38;;;10.88;52.40
10476;BME280;26166;48.264;11.436;2023-04-15T13:27:34;95311.00;;;10.89;52.53
10476;BME280;26166;48.264;11.436;2023-04-15T13:30:36;95317.09;;;10.89;52.58
10476;BME280;26166;48.264;11.436;2023-04-15T13:33:36;95323.53;;;10.86;52.66
10476;BME280;26166;48.264;11.436;2023-04-15T13:36:36;95318.28;;;10.86;52.73
10476;BME280;26166;48.264;11.436;2023-04-15T13:39:36;95334.03;;;10.86;53.47
10476;BME280;26166;48.264;11.436;2023-04-15T13:42:36;95321.91;;;10.85;53.62
10476;BME280;26166;48.264;11.436;2023-04-15T13:45:37;95330.22;;;10.89;53.98
10476;BME280;26166;48.264;11.436;2023-04-15T13:48:38;95330.41;;;10.88;53.58
10476;BME280;26166;48.264;11.436;2023-04-15T13:51:38;95344.53;;;10.86;53.49
10476;BME280;26166;48.264;11.436;2023-04-15T13:54:39;95340.47;;;10.84;53.45
10476;BME280;26166;48.264;11.436;2023-04-15T13:57:39;95343.91;;;10.84;53.12
10476;BME280;26166;48.264;11.436;2023-04-15T14:00:39;95346.34;;;10.86;53.88
10476;BME280;26166;48.264;11.436;2023-04-15T14:03:40;95347.53;;;10.83;54.17
10476;BME280;26166;48.264;11.436;2023-04-15T14:06:40;95357.88;;;10.85;53.99
10476;BME280;26166;48.264;11.436;2023-04-15T14:09:41;95355.84;;;10.87;54.30
10476;BME280;26166;48.264;11.436;2023-04-15T14:12:42;95359.28;;;10.88;53.67
10476;BME280;26166;48.264;11.436;2023-04-15T14:15:42;95360.31;;;10.86;53.93
10476;BME280;26166;48.264;11.436;2023-04-15T14:18:42;95354.84;;;10.88;53.56
10476;BME280;26166;48.264;11.436;2023-04-15T14:21:43;95365.56;;;10.86;53.54
10476;BME280;26166;48.264;11.436;2023-04-15T14:24:43;95368.38;;;10.85;53.10
10476;BME280;26166;48.264;11.436;2023-04-15T14:27:44;95384.16;;;10.85;53.65
10476;BME280;26166;48.264;11.436;2023-04-15T14:30:44;95390.22;;;10.85;54.22
10476;BME280;26166;48.264;11.436;2023-04-15T14:33:44;95394.81;;;10.83;54.20
10476;BME280;26166;48.264;11.436;2023-04-15T14:36:45;95405.97;;;10.85;54.22
10476;BME280;26166;48.264;11.436;2023-04-15T14:39:45;95416.09;;;10.89;54.58
10476;BME280;26166;48.264;11.436;2023-04-15T14:42:45;95413.47;;;10.89;54.40
10476;BME280;26166;48.264;11.436;2023-04-15T14:45:45;95424.97;;;10.88;54.46
10476;BME280;26166;48.264;11.436;2023-04-15T14:48:47;95426.19;;;10.85;54.64
10476;BME280;26166;48.264;11.436;2023-04-15T14:51:48;95436.84;;;10.83;55.18
10476;BME280;26166;48.264;11.436;2023-04-15T14:54:48;95439.69;;;10.82;54.78
10476;BME280;26166;48.264;11.436;2023-04-15T14:57:48;95440.50;;;10.82;54.39
10476;BME280;26166;48.264;11.436;2023-04-15T15:00:48;95447.75;;;10.80;54.87
10476;BME280;26166;48.264;11.436;2023-04-15T15:03:48;95461.72;;;10.81;55.16
10476;BME280;26166;48.264;11.436;2023-04-15T15:06:48;95461.72;;;10.81;55.25
10476;BME280;26166;48.264;11.436;2023-04-15T15:09:49;95467.78;;;10.81;56.00
10476;BME280;26166;48.264;11.436;2023-04-15T15:12:49;95464.94;;;10.83;55.37
10476;BME280;26166;48.264;11.436;2023-04-15T15:15:49;95475.25;;;10.84;55.85
10476;BME280;26166;48.264;11.436;2023-04-15T15:18:49;95482.63;;;10.89;55.71
10476;BME280;26166;48.264;11.436;2023-04-15T15:21:50;95483.22;;;10.91;56.05
10476;BME280;26166;48.264;11.436;2023-04-15T15:24:50;95486.91;;;10.97;55.75
10476;BME280;26166;48.264;11.436;2023-04-15T15:27:50;95486.91;;;10.97;56.44
10476;BME280;26166;48.264;11.436;2023-04-15T15:30:50;95490.53;;;10.96;56.18
10476;BME280;26166;48.264;11.436;2023-04-15T15:33:51;95498.22;;;10.97;56.49
10476;BME280;26166;48.264;11.436;2023-04-15T15:36:52;95488.91;;;10.95;56.48
10476;BME280;26166;48.264;11.436;2023-04-15T15:39:53;95499.78;;;10.92;56.27
10476;BME280;26166;48.264;11.436;2023-04-15T15:42:54;95498.19;;;10.91;56.78
10476;BME280;26166;48.264;11.436;2023-04-15T15:45:54;95492.13;;;10.90;56.50
10476;BME280;26166;48.264;11.436;2023-04-15T15:48:54;95504.84;;;10.93;56.58
10476;BME280;26166;48.264;11.436;2023-04-15T15:51:55;95498.78;;;10.93;56.83
10476;BME280;26166;48.264;11.436;2023-04-15T15:54:55;95502.63;;;10.90;56.77
10476;BME280;26166;48.264;11.436;2023-04-15T15:57:55;95506.25;;;10.89;56.62
10476;BME280;26166;48.264;11.436;2023-04-15T16:00:55;95508.69;;;10.91;56.81
10476;BME280;26166;48.264;11.436;2023-04-15T16:03:55;95517.56;;;10.90;56.67
10476;BME280;26166;48.264;11.436;2023-04-15T16:06:56;95516.78;;;10.89;56.24
10476;BME280;26166;48.264;11.436;2023-04-15T16:09:56;95515.94;;;10.89;56.39
10476;BME280;26166;48.264;11.436;2023-04-15T16:12:56;95523.19;;;10.86;56.83
10476;BME280;26166;48.264;11.436;2023-04-15T16:15:56;95527.28;;;10.89;56.69
10476;BME280;26166;48.264;11.436;2023-04-15T16:18:56;95531.69;;;10.89;56.73
10476;BME280;26166;48.264;11.436;2023-04-15T16:21:57;95531.69;;;10.89;56.87
10476;BME280;26166;48.264;11.436;2023-04-15T16:24:59;95535.31;;;10.88;56.86
10476;BME280;26166;48.264;11.436;2023-04-15T16:27:59;95550.28;;;10.87;56.53
10476;BME280;26166;48.264;11.436;2023-04-15T16:30:59;95543.22;;;10.88;56.62
10476;BME280;26166;48.264;11.436;2023-04-15T16:34:00;95548.66;;;10.86;56.54
10476;BME280;26166;48.264;11.436;2023-04-15T16:37:00;95549.81;;;10.83;56.44
10476;BME280;26166;48.264;11.436;2023-04-15T16:40:01;95546.19;;;10.84;56.43
10476;BME280;26166;48.264;11.436;2023-04-15T16:43:01;95555.88;;;10.84;56.64
10476;BME280;26166;48.264;11.436;2023-04-15T16:46:01;95560.34;;;10.83;56.56
10476;BME280;26166;48.264;11.436;2023-04-15T16:49:02;95558.34;;;10.85;56.59
10476;BME280;26166;48.264;11.436;2023-04-15T16:52:02;95566.84;;;10.88;56.64
10476;BME280;26166;48.264;11.436;2023-04-15T16:55:02;95569.69;;;10.86;56.57
10476;BME280;26166;48.264;11.436;2023-04-15T16:58:03;95571.09;;;10.89;56.84
10476;BME280;26166;48.264;11.436;2023-04-15T17:01:04;95581.81;;;10.87;56.67
10476;BME280;26166;48.264;11.436;2023-04-15T17:04:04;95586.69;;;10.90;56.40
10476;BME280;26166;48.264;11.436;2023-04-15T17:07:04;95593.78;;;10.90;56.33
10476;BME280;26166;48.264;11.436;2023-04-15T17:10:09;95594.75;;;10.89;56.08
10476;BME280;26166;48.264;11.436;2023-04-15T17:13:09;95600.00;;;10.89;56.20
10476;BME280;26166;48.264;11.436;2023-04-15T17:16:10;95604.00;;;10.84;56.33
10476;BME280;26166;48.264;11.436;2023-04-15T17:19:10;95612.53;;;10.86;56.45
10476;BME280;26166;48.264;11.436;2023-04-15T17:22:10;95614.50;;;10.84;56.31
10476;BME280;26166;48.264;11.436;2023-04-15T17:25:12;95615.34;;;10.85;56.53
10476;BME280;26166;48.264;11.436;2023-04-15T17:28:12;95612.88;;;10.83;56.68
10476;BME280;26166;48.264;11.436;2023-04-15T17:31:12;95624.41;;;10.82;56.30
10476;BME280;26166;48.264;11.436;2023-04-15T17:34:12;95626.81;;;10.84;56.50
10476;BME280;26166;48.264;11.436;2023-04-15T17:37:13;95628.47;;;10.85;56.71
10476;BME280;26166;48.264;11.436;2023-04-15T17:40:13;95627.63;;;10.84;56.94
10476;BME280;26166;48.264;11.436;2023-04-15T17:43:13;95633.91;;;10.83;56.90
10476;BME280;26166;48.264;11.436;2023-04-15T17:46:14;95644.06;;;10.86;57.04
10476;BME280;26166;48.264;11.436;2023-04-15T17:49:14;95643.06;;;10.88;57.25
10476;BME280;26166;48.264;11.436;2023-04-15T17:52:15;95645.69;;;10.88;57.54
10476;BME280;26166;48.264;11.436;2023-04-15T17:55:15;95644.88;;;10.87;57.50
10476;BME280;26166;48.264;11.436;2023-04-15T17:58:15;95646.69;;;10.86;57.42
10476;BME280;26166;48.264;11.436;2023-04-15T18:01:15;95657.81;;;10.89;57.72
10476;BME280;26166;48.264;11.436;2023-04-15T18:04:15;95657.81;;;10.89;57.79
10476;BME280;26166;48.264;11.436;2023-04-15T18:07:16;95659.81;;;10.86;57.63
10476;BME280;26166;48.264;11.436;2023-04-15T18:10:16;95669.50;;;10.86;58.11